This is the latest recevied weather packets stored in our database for station/object N2XP-2. If no packets are shown the sender has not sent any weather packets the latest 10 day(s).
| Time | Temp. | Humidity | Pressure | Rain* | Wind** | Luminosity | Snow |
|---|---|---|---|---|---|---|---|
| 1777601437 | 12.78° C | 94% | 1009.6 hPa | 1.52 mm | 0 m/s | - | - |
| 1777601378 | 12.78° C | 93% | 1009.8 hPa | 0 mm | 0 m/s | - | - |
| 1777601226 | 12.78° C | 94% | 1009.7 hPa | 1.52 mm | 0 m/s | - | - |
| 1777601138 | 12.78° C | 94% | 1009.7 hPa | 1.52 mm | 0 m/s | - | - |
| 1777600900 | 12.78° C | 94% | 1009.7 hPa | 1.52 mm | 0 m/s | - | - |
| 1777600835 | 12.78° C | 94% | 1009.7 hPa | 1.52 mm | 0 m/s | - | - |
| 1777600663 | 12.78° C | 94% | 1009.8 hPa | 1.52 mm | 0 m/s | - | - |
| 1777600536 | 12.78° C | 94% | 1009.8 hPa | 1.52 mm | 0 m/s | - | - |
| 1777600238 | 12.78° C | 93% | 1009.8 hPa | 1.52 mm | 0 m/s | - | - |
| 1777600025 | 12.78° C | 93% | 1009.8 hPa | 0 mm | 0 m/s | - | - |
| 1777599935 | 12.78° C | 93% | 1009.8 hPa | 0 mm | 0 m/s | - | - |
| 1777599739 | 12.78° C | 93% | 1009.8 hPa | 0 mm | 0 m/s | - | - |
| 1777599636 | 12.78° C | 93% | 1009.8 hPa | 0 mm | 0 m/s | - | - |
| 1777599337 | 12.78° C | 93% | 1009.8 hPa | 0 mm | 0 m/s | - | - |
| 1777599157 | 13.33° C | 92% | 1009.8 hPa | 0 mm | 0 m/s | - | - |
| 1777599034 | 13.33° C | 92% | 1009.8 hPa | 0 mm | 0 m/s | - | - |
| 1777598735 | 13.33° C | 92% | 1009.8 hPa | 0 mm | 0 m/s | - | - |
| 1777598538 | 13.33° C | 91% | 1009.7 hPa | 0 mm | 0.89 m/s, 315° | - | - |
| 1777598436 | 13.33° C | 91% | 1009.7 hPa | 0 mm | 0.89 m/s, 315° | - | - |
| 1777598232 | 13.89° C | 91% | 1009.5 hPa | 0 mm | 0.45 m/s, 291° | - | - |
| 1777598133 | 13.89° C | 91% | 1009.5 hPa | 0 mm | 0.45 m/s, 291° | - | - |
| 1777597834 | 13.89° C | 90% | 1009.3 hPa | 0 mm | 0.89 m/s, 312° | - | - |
| 1777597535 | 14.44° C | 90% | 1009.1 hPa | 0 mm | 0 m/s | - | - |
| 1777597528 | 14.44° C | 87% | 1007.9 hPa | 0 mm | 0 m/s | - | - |
| 1777597351 | 14.44° C | 90% | 1008.7 hPa | 0 mm | 0 m/s | - | - |
* Rain latest hour (hover to see other rain measurements)
** Current wind speed in m/s (hover to see current wind gust speed)